METAR Data
IDs: Format: Raw Decoded Include TAF

Data at: 1647 UTC 24 Aug 2019

PAVC 241556Z AUTO 00000KT 10SM FEW075 OVC090 09/08 A2986 RMK AO2 SLP115 T00940078
PAVC 241456Z AUTO 00000KT 10SM BKN090 08/07 A2985 RMK AO2 SLP113 T00830072 52005
PAVC 241356Z AUTO 34003KT 10SM BKN090 09/07 A2984 RMK AO2 SLP111 T00940072
PAVC 241256Z AUTO 00000KT 10SM FEW085 10/07 A2984 RMK AO2 SLP109 T01000072
PAVC 241156Z AUTO 00000KT 10SM CLR 09/07 A2983 RMK AO2 SLP107 70007 T00940072 10128 20083 53003
PAVC 241056Z AUTO 00000KT 10SM CLR 11/08 A2983 RMK AO2 SLP105 T01060078
PAVC 240956Z AUTO 00000KT 10SM CLR 09/08 A2982 RMK AO2 SLP103 T00940078
PAVC 240856Z AUTO 26007KT 10SM CLR 11/09 A2982 RMK AO2 SLP104 T01110089 401830061 51010
PAVC 240756Z AUTO 22009KT 10SM CLR 12/09 A2982 RMK AO2 SLP102 T01170094
PAVC 240656Z AUTO VRB04KT 10SM BKN075 12/10 A2980 RMK AO2 SLP098 T01170100
PAVC 240556Z AUTO 26003KT 10SM FEW060 BKN080 13/11 A2979 RMK AO2 SLP094 60007 T01280106 10172 20122 53002
PAVC 240456Z AUTO 26006KT 10SM FEW034 SCT041 OVC065 14/12 A2979 RMK AO2 RAE21 SLP093 P0000 T01390122
PAVC 240356Z AUTO 00000KT 8SM -RA FEW030 BKN049 OVC060 13/12 A2979 RMK AO2 RAB02 SLP093 P0003 T01330117
PAVC 240256Z AUTO 13004KT 10SM BKN035 OVC043 13/11 A2979 RMK AO2 RAE45 SLP093 P0002 60004 T01280111 53002
PAVC 240156Z AUTO 34007KT 6SM -RA BR OVC043 14/12 A2978 RMK AO2 RAB09 SLP090 P0002 T01390117
PAVC 240117Z AUTO 30007KT 10SM -RA SCT029 OVC043 15/12 A2978 RMK AO2 RAB09 P0000
PAVC 240056Z AUTO 24005KT 10SM OVC029 16/11 A2978 RMK AO2 SLP090 T01610111
PAVC 232356Z AUTO 10005KT 10SM BKN055 OVC070 17/11 A2978 RMK AO2 SLP090 T01720106 10183 20122 58003
PAVC 232256Z AUTO 09008KT 10SM BKN060 17/10 A2978 RMK AO2 SLP091 T01720100
PAVC 232156Z AUTO 10004KT 10SM BKN060 18/09 A2979 RMK AO2 SLP092 T01780094
PAVC 232056Z AUTO 11004KT 10SM CLR 16/09 A2979 RMK AO2 SLP092 T01610094 51001
PAVC 231956Z AUTO 24004KT 10SM CLR 15/11 A2979 RMK AO2 SLP092 T01500106
PAVC 231856Z AUTO 27010KT 10SM CLR 13/12 A2979 RMK AO2 SLP092 T01330117
PAVC 231756Z AUTO 27007KT 10SM CLR 12/11 A2979 RMK AO2 SLP091 T01220111 10122 20061 51003
PAVC 231656Z AUTO 24007KT 10SM CLR 09/08 A2978 RMK AO2 SLP091 T00890083
PAVC 231556Z AUTO 25005KT 10SM CLR 09/08 A2978 RMK AO2 SLP090 T00890078
PAVC 231456Z AUTO 25006KT 9SM CLR 07/06 A2978 RMK AO2 SLP088 T00670061 50001
PAVC 231356Z AUTO 00000KT 10SM CLR 07/07 A2978 RMK AO2 SLP089 T00720072
PAVC 231256Z AUTO 25003KT 5SM BR CLR 07/07 A2977 RMK AO2 SLP087 T00720072
PAVC 231245Z AUTO 28004KT 10SM CLR 08/08 A2977 RMK AO2
PAVC 231236Z AUTO 00000KT 2 1/2SM BR CLR 08/08 A2977 RMK AO2
PAVC 231156Z AUTO 00000KT 9SM CLR 08/08 A2977 RMK AO2 SLP087 T00830083 10139 20083 58002
PAVC 231056Z AUTO 24003KT 10SM CLR 09/09 A2978 RMK AO2 SLP088 T00940089
PAVC 230956Z AUTO 25003KT 10SM CLR 11/09 A2978 RMK AO2 SLP089 T01060094
PAVC 230856Z AUTO 27005KT 10SM CLR 12/10 A2978 RMK AO2 SLP088 T01170100 401940106 51009
PAVC 230756Z AUTO 27004KT 10SM CLR 12/10 A2977 RMK AO2 SLP086 T01220100
PAVC 230656Z AUTO VRB05KT 10SM CLR 13/09 A2977 RMK AO2 SLP084 T01280094
PAVC 230556Z AUTO 24006KT 10SM CLR 14/10 A2975 RMK AO2 SLP079 T01440100 10194 20139 53005
PAVC 230456Z AUTO 24011KT 10SM CLR 15/10 A2973 RMK AO2 SLP073 T01500100